Time;durP1;ratioP1;P1;durP2;ratioP2;P2;SDS_P1;SDS_P2;PMS_P1;PMS_P2;Temp;Humidity;BMP_temperature;BMP_pressure;BME280_temperature;BME280_humidity;BME280_pressure;Samples;Min_cycle;Max_cycle;Signal;HPM_P1;HPM_P2
2022/05/21 00:01:54;;;;;;;3.85;2.97;;;19.00;99.90;;;;;;5097075;28;20028;-66
2022/05/21 00:04:20;;;;;;;6.20;3.75;;;18.90;99.90;;;;;;5115564;28;20038;-66
2022/05/21 00:06:45;;;;;;;6.20;3.63;;;18.80;99.90;;;;;;5136586;22;20094;-63
2022/05/21 00:09:11;;;;;;;4.00;3.03;;;18.90;99.90;;;;;;5115106;28;20515;-63
2022/05/21 00:11:38;;;;;;;5.03;3.20;;;18.80;99.90;;;;;;5115160;28;20043;-63
2022/05/21 00:14:04;;;;;;;7.25;3.38;;;18.70;99.90;;;;;;5096580;28;20106;-63
2022/05/21 00:16:30;;;;;;;4.07;2.97;;;18.70;99.90;;;;;;5115040;28;20023;-63
2022/05/21 00:18:56;;;;;;;5.97;3.38;;;18.60;99.90;;;;;;5096773;28;20492;-63
2022/05/21 00:21:23;;;;;;;4.10;2.92;;;18.70;99.90;;;;;;5115001;28;20032;-63
2022/05/21 00:23:50;;;;;;;3.75;3.10;;;18.60;99.90;;;;;;5114598;28;20027;-63
2022/05/21 00:26:16;;;;;;;4.10;2.97;;;18.50;99.90;;;;;;5114819;28;20028;-63
2022/05/21 00:28:43;;;;;;;;;;;18.50;99.90;;;;;;5114847;28;20381;-63
2022/05/21 00:31:10;;;;;;;6.18;3.63;;;18.40;99.90;;;;;;5114538;28;19904;-63
2022/05/21 00:33:37;;;;;;;5.45;3.17;;;18.30;99.90;;;;;;5096358;28;20050;-63
2022/05/21 00:36:05;;;;;;;5.35;3.70;;;18.30;99.90;;;;;;5114454;28;20023;-63
2022/05/21 00:38:32;;;;;;;5.97;3.67;;;18.30;99.90;;;;;;5096054;28;20019;-63
2022/05/21 00:40:57;;;;;;;4.50;2.90;;;18.20;99.90;;;;;;5114196;28;20043;-63
2022/05/21 00:43:43;;;;;;;5.22;3.00;;;18.10;99.90;;;;;;5114652;28;20035;-63
2022/05/21 00:46:12;;;;;;;6.13;3.70;;;18.10;99.90;;;;;;5115092;28;20032;-63
2022/05/21 00:48:40;;;;;;;6.65;2.80;;;18.00;99.90;;;;;;5114276;28;20034;-63
2022/05/21 00:51:11;;;;;;;5.28;3.25;;;18.00;99.90;;;;;;5096639;28;20420;-63
2022/05/21 00:53:37;;;;;;;3.92;2.92;;;18.00;99.90;;;;;;5114535;28;20068;-62
2022/05/21 00:56:04;;;;;;;3.67;2.88;;;17.80;99.90;;;;;;5095884;28;20016;-62
2022/05/21 01:01:17;;;;;;;3.95;3.28;;;17.80;99.90;;;;;;5114436;28;20445;-64
2022/05/21 01:03:44;;;;;;;6.00;3.45;;;17.60;99.90;;;;;;5114357;28;20094;-65
2022/05/21 01:06:11;;;;;;;5.20;4.10;;;17.60;99.90;;;;;;5115104;28;20492;-63
2022/05/21 01:08:38;;;;;;;6.50;3.30;;;17.50;99.90;;;;;;5113740;28;20080;-65
2022/05/21 01:11:10;;;;;;;4.50;3.13;;;17.50;99.90;;;;;;5095673;28;20023;-66
2022/05/21 01:13:38;;;;;;;5.07;3.35;;;17.50;99.90;;;;;;5113920;28;20489;-62
2022/05/21 01:16:05;;;;;;;5.10;3.28;;;17.50;99.90;;;;;;5113844;28;20022;-65
2022/05/21 01:18:30;;;;;;;4.32;3.30;;;17.40;99.90;;;;;;5095486;28;20028;-65
2022/05/21 01:20:59;;;;;;;5.65;3.10;;;17.30;99.90;;;;;;5113615;28;20031;-65
2022/05/21 01:23:26;;;;;;;5.43;3.10;;;17.30;99.90;;;;;;5113710;28;20031;-65
2022/05/21 01:25:53;;;;;;;4.07;2.90;;;17.30;99.90;;;;;;5113777;28;20027;-64
2022/05/21 01:28:22;;;;;;;5.85;3.53;;;17.30;99.90;;;;;;5113726;28;20103;-65
2022/05/21 01:30:59;;;;;;;4.22;3.00;;;17.20;99.90;;;;;;5095775;28;20115;-65
2022/05/21 01:33:30;;;;;;;9.50;3.05;;;17.10;99.90;;;;;;5095267;28;20022;-65
2022/05/21 01:35:57;;;;;;;4.78;2.92;;;17.10;99.90;;;;;;5095423;28;20107;-65
2022/05/21 01:38:24;;;;;;;6.45;2.80;;;17.00;99.90;;;;;;5113451;28;20020;-63
2022/05/21 01:40:51;;;;;;;6.10;3.28;;;17.00;99.90;;;;;;5113487;28;20027;-63
2022/05/21 01:46:01;;;;;;;4.93;2.97;;;16.90;99.90;;;;;;5114115;28;20084;-63
2022/05/21 01:48:29;;;;;;;5.32;3.08;;;16.90;99.90;;;;;;5113563;28;20107;-63
2022/05/21 01:50:55;;;;;;;8.85;3.15;;;17.00;99.90;;;;;;5113559;28;20110;-63
2022/05/21 01:53:22;;;;;;;5.38;3.65;;;16.90;99.90;;;;;;5095622;28;20108;-63
2022/05/21 01:55:48;;;;;;;7.78;3.45;;;16.80;99.90;;;;;;5099262;28;20024;-63
2022/05/21 01:58:15;;;;;;;6.68;3.25;;;16.80;99.90;;;;;;5099245;28;20035;-63
2022/05/21 02:00:42;;;;;;;6.07;3.35;;;16.70;99.90;;;;;;5099319;28;20039;-65
2022/05/21 02:03:09;;;;;;;6.63;3.53;;;16.70;99.90;;;;;;5117587;28;20080;-63
2022/05/21 02:05:34;;;;;;;4.70;3.25;;;16.60;99.90;;;;;;5117352;28;20036;-63
2022/05/21 02:08:00;;;;;;;3.73;2.70;;;16.60;99.90;;;;;;5098773;28;20038;-63
2022/05/21 02:10:26;;;;;;;4.00;3.42;;;16.50;99.90;;;;;;5117515;28;20254;-63
2022/05/21 02:12:51;;;;;;;3.55;3.10;;;16.60;99.90;;;;;;5117476;28;20099;-63
2022/05/21 02:15:17;;;;;;;3.83;3.08;;;16.50;99.90;;;;;;5117317;28;20024;-63
2022/05/21 02:17:42;;;;;;;4.97;2.90;;;16.50;99.90;;;;;;5117475;28;20080;-63
2022/05/21 02:20:08;;;;;;;5.55;3.10;;;16.40;99.90;;;;;;5117682;28;20466;-63
2022/05/21 02:22:36;;;;;;;3.45;2.58;;;16.40;99.90;;;;;;5117148;28;20215;-64
2022/05/21 02:25:03;;;;;;;3.90;2.60;;;16.30;99.90;;;;;;5098697;28;20023;-64
2022/05/21 02:27:28;;;;;;;3.60;2.70;;;16.20;99.90;;;;;;5116815;28;20070;-64
2022/05/21 02:29:54;;;;;;;4.33;2.87;;;16.20;99.90;;;;;;5116954;28;20051;-64
2022/05/21 02:32:20;;;;;;;6.05;2.53;;;16.10;99.90;;;;;;5117195;28;20257;-64
2022/05/21 02:34:45;;;;;;;3.67;2.80;;;16.10;99.90;;;;;;5098742;28;20031;-63
2022/05/21 02:39:55;;;;;;;4.70;3.05;;;16.00;99.90;;;;;;5117272;28;20034;-64
2022/05/21 02:45:05;;;;;;;5.18;4.15;;;16.00;99.90;;;;;;5117005;28;20307;-64
2022/05/21 02:47:31;;;;;;;;;;;16.00;99.90;;;;;;5116923;28;20474;-65
2022/05/21 02:49:56;;;;;;;5.50;3.75;;;16.00;99.90;;;;;;5116584;28;19911;-64
2022/05/21 02:52:23;;;;;;;4.87;3.80;;;16.00;99.90;;;;;;5116618;28;20423;-64
2022/05/21 02:54:48;;;;;;;5.07;4.05;;;16.00;99.90;;;;;;5117000;28;20276;-64
2022/05/21 02:57:15;;;;;;;6.18;3.40;;;15.90;99.90;;;;;;5116353;28;20474;-64
2022/05/21 02:59:41;;;;;;;5.85;4.10;;;15.90;99.90;;;;;;5116361;28;20066;-64
2022/05/21 03:02:07;;;;;;;5.05;3.33;;;15.80;99.90;;;;;;5116837;28;20059;-63
2022/05/21 03:04:32;;;;;;;4.68;3.88;;;15.70;99.90;;;;;;5116528;28;20469;-63
2022/05/21 03:06:58;;;;;;;6.03;4.00;;;15.70;99.90;;;;;;5116280;28;20035;-63
2022/05/21 03:12:09;;;;;;;5.03;3.80;;;15.60;99.90;;;;;;5116508;28;20035;-64
2022/05/21 03:14:35;;;;;;;5.07;3.85;;;15.60;99.90;;;;;;5098425;28;20394;-63
2022/05/21 03:17:01;;;;;;;5.05;3.80;;;15.60;99.90;;;;;;5116868;28;20051;-63
2022/05/21 03:19:31;;;;;;;5.70;4.28;;;15.50;99.90;;;;;;5116500;28;20034;-63
2022/05/21 03:21:57;;;;;;;5.68;3.97;;;15.50;99.90;;;;;;5116887;28;20085;-63
2022/05/21 03:24:24;;;;;;;6.18;4.00;;;15.50;99.90;;;;;;5116576;28;20032;-63
2022/05/21 03:26:49;;;;;;;7.80;3.88;;;15.50;99.90;;;;;;5117053;28;20158;-63
2022/05/21 03:29:16;;;;;;;5.03;3.63;;;15.40;99.90;;;;;;5098424;28;20122;-63
2022/05/21 03:31:41;;;;;;;7.45;4.10;;;15.40;99.90;;;;;;5116857;28;20253;-63
2022/05/21 03:34:07;;;;;;;7.38;3.85;;;15.50;99.90;;;;;;5116089;28;20543;-63
2022/05/21 03:36:33;;;;;;;5.55;4.05;;;15.40;99.90;;;;;;5115711;28;20023;-63
2022/05/21 03:38:59;;;;;;;4.85;3.80;;;15.50;99.90;;;;;;5116472;28;20035;-63
2022/05/21 03:41:26;;;;;;;4.93;3.70;;;15.40;99.90;;;;;;5097364;28;20039;-63
2022/05/21 03:43:54;;;;;;;7.68;4.78;;;15.40;99.90;;;;;;5116077;28;20023;-63
2022/05/21 03:46:20;;;;;;;6.43;3.88;;;15.30;99.90;;;;;;5115930;28;20027;-63
2022/05/21 03:48:46;;;;;;;5.97;4.20;;;15.30;99.90;;;;;;5098102;28;20032;-64
2022/05/21 03:51:12;;;;;;;8.20;4.70;;;15.30;99.90;;;;;;5117174;28;20028;-63
2022/05/21 03:53:38;;;;;;;7.80;4.38;;;15.30;99.90;;;;;;5115818;28;20034;-63
2022/05/21 03:56:04;;;;;;;5.65;4.18;;;15.30;99.90;;;;;;5115437;28;20032;-63
2022/05/21 03:58:30;;;;;;;;;;;15.20;99.90;;;;;;5097546;28;20034;-63
2022/05/21 04:00:56;;;;;;;6.13;4.50;;;15.20;99.90;;;;;;5115185;28;20277;-63
2022/05/21 04:03:22;;;;;;;8.85;4.85;;;15.20;99.90;;;;;;5115725;28;20032;-63
2022/05/21 04:05:48;;;;;;;5.25;4.25;;;15.30;99.90;;;;;;5115371;28;20036;-63
2022/05/21 04:08:16;;;;;;;8.10;4.97;;;15.20;99.90;;;;;;5114771;28;20089;-64
2022/05/21 04:10:41;;;;;;;5.72;4.78;;;15.20;99.90;;;;;;5115106;28;20098;-64
2022/05/21 04:13:07;;;;;;;7.07;4.40;;;15.20;99.90;;;;;;5096794;28;20123;-65
2022/05/21 04:15:33;;;;;;;6.00;4.60;;;15.20;99.90;;;;;;5114884;28;20034;-65
2022/05/21 04:17:59;;;;;;;5.78;4.78;;;15.20;99.90;;;;;;5095926;28;20261;-65
2022/05/21 04:20:25;;;;;;;7.82;5.05;;;15.20;99.90;;;;;;5114771;28;20084;-65
2022/05/21 04:22:51;;;;;;;5.80;4.97;;;15.20;99.90;;;;;;5115050;28;20068;-63
2022/05/21 04:25:17;;;;;;;5.47;4.60;;;15.20;99.90;;;;;;5115349;28;20102;-64
2022/05/21 04:27:43;;;;;;;7.95;4.95;;;15.20;99.90;;;;;;5115005;28;20094;-64
2022/05/21 04:30:16;;;;;;;5.78;5.03;;;15.20;99.90;;;;;;5096824;28;20385;-64
2022/05/21 04:32:46;;;;;;;7.97;4.88;;;15.20;99.90;;;;;;5114870;28;20023;-65
2022/05/21 04:35:14;;;;;;;7.75;4.85;;;15.20;99.90;;;;;;5115274;28;20047;-63
2022/05/21 04:37:40;;;;;;;7.20;4.85;;;15.20;99.90;;;;;;5115194;28;20038;-64
2022/05/21 04:40:08;;;;;;;7.20;4.47;;;15.20;99.90;;;;;;5114421;28;20024;-64
2022/05/21 04:42:34;;;;;;;5.82;4.65;;;15.20;99.90;;;;;;5095927;28;20023;-64
2022/05/21 04:44:59;;;;;;;7.93;4.53;;;15.20;99.90;;;;;;5114501;28;20389;-64
2022/05/21 04:47:25;;;;;;;7.20;4.53;;;15.20;99.90;;;;;;5095794;28;20070;-64
2022/05/21 04:49:51;;;;;;;6.50;4.15;;;15.20;99.90;;;;;;5114399;28;20262;-64
2022/05/21 04:52:17;;;;;;;5.57;3.90;;;15.30;99.90;;;;;;5114153;28;20099;-64
2022/05/21 04:54:42;;;;;;;8.50;4.38;;;15.30;99.90;;;;;;5095660;28;20381;-64
2022/05/21 04:57:09;;;;;;;5.43;3.70;;;15.30;99.90;;;;;;5113929;28;20027;-64
2022/05/21 04:59:34;;;;;;;4.68;3.85;;;15.40;99.90;;;;;;5113918;28;20030;-64
2022/05/21 05:02:00;;;;;;;8.07;4.68;;;15.40;99.90;;;;;;5113963;28;20020;-64
2022/05/21 05:04:26;;;;;;;5.22;3.30;;;15.40;99.90;;;;;;5114158;28;20168;-64
2022/05/21 05:06:51;;;;;;;7.47;3.17;;;15.40;99.90;;;;;;5114736;28;20035;-64
2022/05/21 05:09:21;;;;;;;6.07;3.87;;;15.40;99.90;;;;;;5114101;28;20269;-64
2022/05/21 05:11:47;;;;;;;6.45;3.40;;;15.70;99.90;;;;;;5113903;28;20310;-64
2022/05/21 05:14:13;;;;;;;10.32;3.42;;;15.80;99.90;;;;;;5095551;28;20024;-64
2022/05/21 05:16:38;;;;;;;6.07;3.60;;;15.80;99.90;;;;;;5113545;28;20024;-65
2022/05/21 05:19:04;;;;;;;6.97;3.28;;;15.80;99.90;;;;;;5114077;28;20020;-65
2022/05/21 05:21:29;;;;;;;5.63;3.13;;;15.80;99.90;;;;;;5113999;28;20023;-65
2022/05/21 05:23:55;;;;;;;6.10;3.10;;;15.80;99.90;;;;;;5113690;28;20016;-65
2022/05/21 05:26:22;;;;;;;3.83;2.90;;;15.80;99.90;;;;;;5113676;28;20434;-65
2022/05/21 05:28:48;;;;;;;4.65;2.80;;;15.70;99.90;;;;;;5112550;28;20019;-64
2022/05/21 05:31:14;;;;;;;;;;;15.80;99.90;;;;;;5114040;28;20041;-64
2022/05/21 05:33:39;;;;;;;4.57;2.70;;;15.80;99.90;;;;;;5113663;28;20393;-65
2022/05/21 05:36:06;;;;;;;4.55;2.92;;;15.90;99.90;;;;;;5113418;28;20501;-64
2022/05/21 05:38:31;;;;;;;;;;;15.90;99.90;;;;;;5113655;28;20031;-65
2022/05/21 05:40:57;;;;;;;6.43;2.95;;;15.80;99.90;;;;;;5113860;28;19904;-65
2022/05/21 05:43:23;;;;;;;3.70;2.72;;;16.00;99.90;;;;;;5095332;28;20105;-66
2022/05/21 05:45:51;;;;;;;9.82;2.90;;;15.90;99.90;;;;;;5095523;28;20386;-65
2022/05/21 05:48:17;;;;;;;5.00;2.85;;;15.90;99.90;;;;;;5113236;28;20023;-65
2022/05/21 05:50:43;;;;;;;4.75;2.70;;;15.90;99.90;;;;;;5113680;28;20489;-66
2022/05/21 05:53:08;;;;;;;5.93;2.40;;;15.90;99.90;;;;;;5096109;28;20105;-65
2022/05/21 05:55:36;;;;;;;3.05;2.10;;;15.90;99.90;;;;;;5113922;28;20028;-65
2022/05/21 05:59:48;;;;;;;5.60;2.50;;;16.00;99.90;;;;;;5114542;28;20550;-64
2022/05/21 06:00:47;;;;;;;5.13;2.13;;;16.10;99.90;;;;;;5113944;28;20024;-62
2022/05/21 06:03:13;;;;;;;4.00;2.40;;;16.10;99.90;;;;;;5095964;28;20016;-64
2022/05/21 06:05:38;;;;;;;4.60;2.13;;;16.20;99.90;;;;;;5113569;28;20776;-62
2022/05/21 06:08:05;;;;;;;5.50;2.20;;;16.30;99.90;;;;;;5134546;22;20305;-65
2022/05/21 06:10:36;;;;;;;3.10;2.20;;;16.30;99.90;;;;;;5112922;28;20160;-65
2022/05/21 06:13:03;;;;;;;3.58;2.28;;;16.30;99.90;;;;;;5112973;28;20478;-64
2022/05/21 06:15:29;;;;;;;3.75;1.90;;;16.30;99.90;;;;;;5112839;28;20103;-64
2022/05/21 06:17:55;;;;;;;3.40;2.20;;;16.40;99.90;;;;;;5112800;28;20110;-64
2022/05/21 06:20:24;;;;;;;4.18;2.20;;;16.40;99.90;;;;;;5113435;28;20253;-67
2022/05/21 06:22:50;;;;;;;5.00;2.65;;;16.50;99.90;;;;;;5094557;28;20400;-66
2022/05/21 06:25:18;;;;;;;5.45;2.10;;;16.60;99.90;;;;;;5113050;28;20103;-66
2022/05/21 06:27:49;;;;;;;3.22;2.10;;;16.70;99.90;;;;;;5113045;28;20039;-66
2022/05/21 06:30:16;;;;;;;3.00;1.48;;;16.90;99.90;;;;;;5094511;28;20027;-66
2022/05/21 06:32:42;;;;;;;2.22;1.40;;;16.90;99.90;;;;;;5095157;28;20517;-66
2022/05/21 06:35:08;;;;;;;22.40;2.88;;;17.00;99.90;;;;;;5113654;28;20090;-67
2022/05/21 06:37:34;;;;;;;;;;;17.20;99.90;;;;;;5113435;28;20152;-65
2022/05/21 06:39:59;;;;;;;4.10;1.80;;;17.20;99.90;;;;;;5096121;28;19934;-66
2022/05/21 06:42:25;;;;;;;4.33;1.80;;;17.20;99.90;;;;;;5098466;28;20032;-66
2022/05/21 06:44:51;;;;;;;11.10;2.33;;;17.10;99.90;;;;;;5098242;28;20620;-66
2022/05/21 06:47:17;;;;;;;3.00;1.50;;;17.10;99.90;;;;;;5116552;28;20326;-66
2022/05/21 06:49:42;;;;;;;8.00;2.00;;;17.10;99.90;;;;;;5116379;28;20028;-67
2022/05/21 06:52:08;;;;;;;5.13;1.33;;;17.00;99.90;;;;;;5116518;28;20055;-66
2022/05/21 06:54:33;;;;;;;5.17;1.80;;;17.00;99.90;;;;;;5116377;28;20261;-67
2022/05/21 06:56:59;;;;;;;3.30;1.35;;;17.10;99.90;;;;;;5115998;28;20265;-66
2022/05/21 06:59:25;;;;;;;7.40;1.30;;;17.10;99.90;;;;;;5116086;28;20488;-66
2022/05/21 07:01:51;;;;;;;3.20;1.30;;;17.10;99.90;;;;;;5116181;28;20075;-66
2022/05/21 07:07:32;;;;;;;4.00;1.27;;;17.10;99.90;;;;;;5116317;28;20073;-67
2022/05/21 07:09:46;;;;;;;4.78;1.30;;;17.20;99.90;;;;;;5116546;28;20038;-67
2022/05/21 07:12:12;;;;;;;2.53;1.05;;;17.30;99.90;;;;;;5116184;28;20019;-67
2022/05/21 07:14:37;;;;;;;4.23;1.50;;;17.30;99.90;;;;;;5097765;28;20059;-66
2022/05/21 07:17:03;;;;;;;10.30;1.97;;;17.30;99.90;;;;;;5097659;28;20293;-66
2022/05/21 07:19:29;;;;;;;2.83;1.30;;;17.30;99.90;;;;;;5098266;28;20324;-66
2022/05/21 07:21:54;;;;;;;5.15;1.30;;;17.40;99.90;;;;;;5116015;28;20034;-66
2022/05/21 07:24:20;;;;;;;2.72;0.82;;;17.50;99.90;;;;;;5115659;28;20069;-66
2022/05/21 07:26:46;;;;;;;4.15;1.13;;;17.60;99.90;;;;;;5115646;28;20035;-66
2022/05/21 07:29:12;;;;;;;4.55;1.10;;;17.70;99.90;;;;;;5115689;28;20530;-66
2022/05/21 07:31:38;;;;;;;3.67;1.20;;;17.70;99.90;;;;;;5115470;28;20039;-66
2022/05/21 07:34:05;;;;;;;6.57;1.02;;;17.80;99.90;;;;;;5115428;28;20397;-66
2022/05/21 07:36:31;;;;;;;2.80;1.05;;;17.90;99.90;;;;;;5096915;28;20049;-69
2022/05/21 07:38:56;;;;;;;5.07;1.20;;;17.80;99.90;;;;;;5115171;28;20039;-66
2022/05/21 07:41:22;;;;;;;6.20;1.67;;;17.80;99.90;;;;;;5115246;28;20266;-66
2022/05/21 07:43:47;;;;;;;4.47;1.10;;;17.80;99.90;;;;;;5115375;28;20098;-66
2022/05/21 07:46:13;;;;;;;3.28;1.02;;;17.90;99.90;;;;;;5115464;28;20027;-66
2022/05/21 07:48:38;;;;;;;5.43;1.02;;;18.00;99.90;;;;;;5118008;28;20039;-66
2022/05/21 07:51:06;;;;;;;3.72;1.10;;;18.10;99.90;;;;;;5118280;28;20367;-65
2022/05/21 07:53:35;;;;;;;5.70;1.27;;;18.30;99.90;;;;;;5096894;28;20035;-67
2022/05/21 07:56:02;;;;;;;2.05;0.90;;;18.40;99.90;;;;;;5097585;28;20020;-66
2022/05/21 07:58:31;;;;;;;3.75;0.90;;;18.50;99.90;;;;;;5115708;28;20496;-66
2022/05/21 08:00:57;;;;;;;4.70;0.90;;;18.70;99.90;;;;;;5097654;28;20019;-66
2022/05/21 08:03:23;;;;;;;7.97;2.05;;;18.90;99.90;;;;;;5097985;28;20119;-66
2022/05/21 08:05:49;;;;;;;4.97;1.40;;;19.10;99.60;;;;;;5096856;28;20059;-66
2022/05/21 08:08:15;;;;;;;2.83;1.10;;;19.60;99.40;;;;;;5115006;28;20032;-66
2022/05/21 08:10:43;;;;;;;5.57;1.08;;;21.10;97.50;;;;;;5114770;28;20024;-67
2022/05/21 08:13:10;;;;;;;5.75;1.42;;;23.00;94.10;;;;;;5114999;28;20036;-67
2022/05/21 08:15:37;;;;;;;4.22;1.15;;;24.50;91.10;;;;;;5096476;28;20023;-67
2022/05/21 08:18:04;;;;;;;7.20;1.20;;;24.80;88.80;;;;;;5096067;28;20047;-67
2022/05/21 08:20:33;;;;;;;4.57;1.02;;;24.10;89.10;;;;;;5115111;28;20172;-67
2022/05/21 08:28:27;;;;;;;4.90;1.30;;;27.30;81.10;;;;;;5114907;28;20038;-66
2022/05/21 08:30:53;;;;;;;2.95;1.33;;;28.30;76.70;;;;;;5096247;28;20385;-64
2022/05/21 08:33:19;;;;;;;2.17;1.10;;;27.80;75.30;;;;;;5114720;28;20092;-64
2022/05/21 08:35:45;;;;;;;2.60;1.02;;;27.90;74.20;;;;;;5096257;28;20027;-64
2022/05/21 08:38:12;;;;;;;3.40;1.02;;;29.30;71.90;;;;;;5114313;28;20024;-64
2022/05/21 08:40:55;;;;;;;5.15;1.15;;;30.20;67.70;;;;;;5114582;28;20538;-64
2022/05/21 08:43:50;;;;;;;4.32;1.38;;;30.40;66.00;;;;;;5095903;28;20102;-64
2022/05/21 08:46:25;;;;;;;4.63;1.65;;;30.60;64.20;;;;;;5015085;28;20117;-64
2022/05/21 08:49:13;;;;;;;4.30;1.23;;;30.20;63.80;;;;;;5031976;28;20033;-65
2022/05/21 08:51:48;;;;;;;3.30;1.20;;;31.00;62.50;;;;;;5030888;28;20108;-64
2022/05/21 08:54:22;;;;;;;3.15;1.10;;;31.00;61.40;;;;;;5031259;28;20060;-64
2022/05/21 08:56:49;;;;;;;4.45;1.42;;;31.30;60.90;;;;;;5014881;28;20036;-64
2022/05/21 08:59:17;;;;;;;2.33;1.00;;;30.30;61.90;;;;;;5014494;28;20025;-64
2022/05/21 09:01:44;;;;;;;2.72;1.23;;;30.20;61.80;;;;;;5031338;28;20100;-64
2022/05/21 09:04:12;;;;;;;4.78;1.10;;;30.50;61.20;;;;;;5030902;28;20036;-65
2022/05/21 09:06:58;;;;;;;4.18;1.20;;;30.30;60.20;;;;;;5031180;28;20060;-65
2022/05/21 09:09:52;;;;;;;8.90;5.88;;;28.00;63.20;;;;;;5031602;28;20124;-66
2022/05/21 09:12:56;;;;;;;3.83;1.20;;;27.00;66.70;;;;;;5031487;28;20034;-66
2022/05/21 09:18:14;;;;;;;4.20;1.15;;;29.30;62.70;;;;;;5031329;28;20037;-64
2022/05/21 09:20:56;;;;;;;5.18;0.90;;;28.30;63.20;;;;;;5031437;28;20090;-66
2022/05/21 09:23:22;;;;;;;3.83;1.33;;;28.20;63.60;;;;;;5081814;28;20505;-66
2022/05/21 09:26:07;;;;;;;4.43;1.20;;;28.30;63.90;;;;;;5113896;28;20045;-65
2022/05/21 09:28:37;;;;;;;3.55;1.10;;;28.80;63.20;;;;;;5113923;28;20031;-64
2022/05/21 09:31:05;;;;;;;4.95;1.25;;;29.00;62.20;;;;;;5114128;28;20024;-65
2022/05/21 09:33:41;;;;;;;5.03;1.50;;;27.50;63.60;;;;;;5113726;28;20027;-64
2022/05/21 09:36:08;;;;;;;2.67;1.10;;;26.10;66.50;;;;;;5113675;28;20161;-66
2022/05/21 09:38:48;;;;;;;3.53;1.15;;;24.90;68.60;;;;;;5094993;28;20080;-65
2022/05/21 09:41:21;;;;;;;3.20;1.08;;;24.10;70.70;;;;;;5113501;28;20024;-65
2022/05/21 09:46:46;;;;;;;7.55;1.77;;;25.50;69.30;;;;;;5113769;28;20026;-65
2022/05/21 09:49:23;;;;;;;3.53;1.05;;;26.30;66.60;;;;;;5113485;28;20034;-65
2022/05/21 09:51:58;;;;;;;6.60;1.75;;;25.90;67.40;;;;;;5113722;28;20027;-65
2022/05/21 09:54:28;;;;;;;3.95;1.00;;;25.40;68.60;;;;;;5094726;28;20031;-66
2022/05/21 09:56:55;;;;;;;5.97;1.30;;;25.90;67.90;;;;;;5112941;28;20043;-66
2022/05/21 09:59:25;;;;;;;3.53;1.70;;;27.10;65.70;;;;;;5094832;28;20038;-65
2022/05/21 10:01:54;;;;;;;4.53;1.33;;;28.00;64.70;;;;;;5113165;28;20072;-65
2022/05/21 10:04:39;;;;;;;5.82;1.08;;;27.50;64.40;;;;;;5112982;28;20084;-65
2022/05/21 10:11:02;;;;;;;2.08;1.05;;;27.10;66.30;;;;;;5112927;28;20039;-65
2022/05/21 10:13:43;;;;;;;2.50;1.13;;;29.10;63.80;;;;;;5112292;28;20055;-67
2022/05/21 10:16:23;;;;;;;6.03;1.20;;;30.40;60.50;;;;;;5116760;28;20020;-66
2022/05/21 10:19:09;;;;;;;3.70;1.20;;;30.40;59.60;;;;;;5116736;28;20028;-66
2022/05/21 10:21:57;;;;;;;2.25;1.15;;;30.80;58.80;;;;;;5117075;28;20022;-66
2022/05/21 10:25:01;;;;;;;4.28;1.20;;;31.40;58.00;;;;;;5117175;28;20040;-66
2022/05/21 10:27:53;;;;;;;2.17;0.82;;;31.50;57.50;;;;;;5116380;28;20023;-66
2022/05/21 10:30:41;;;;;;;4.45;1.27;;;31.90;56.30;;;;;;5084934;28;20051;-65
2022/05/21 10:33:12;;;;;;;7.70;1.23;;;32.40;55.20;;;;;;5116807;28;20026;-65
2022/05/21 10:36:13;;;;;;;10.27;1.73;;;31.30;56.00;;;;;;5116538;28;20016;-64
2022/05/21 10:38:50;;;;;;;3.33;1.25;;;30.60;57.30;;;;;;5116250;28;20482;-65
2022/05/21 10:41:49;;;;;;;5.80;1.33;;;30.60;57.90;;;;;;5116453;28;20023;-66
2022/05/21 10:44:14;;;;;;;38.25;4.03;;;30.90;56.70;;;;;;5116443;28;20016;-66
2022/05/21 10:46:57;;;;;;;2.30;0.98;;;31.10;56.70;;;;;;5116601;28;20043;-66
2022/05/21 10:49:39;;;;;;;5.15;1.10;;;31.50;56.20;;;;;;5097934;28;20042;-66
2022/05/21 10:52:15;;;;;;;4.22;0.98;;;31.30;55.90;;;;;;5116715;28;20027;-66
2022/05/21 10:54:48;;;;;;;3.40;0.98;;;30.80;56.50;;;;;;5098030;28;20023;-65
2022/05/21 10:57:39;;;;;;;2.63;0.85;;;29.30;57.90;;;;;;5097775;28;20127;-63
2022/05/21 11:00:07;;;;;;;2.58;0.82;;;28.80;58.60;;;;;;5116417;28;20112;-64
2022/05/21 11:03:11;;;;;;;3.13;1.00;;;29.30;58.10;;;;;;5097643;28;20016;-63
2022/05/21 11:06:12;;;;;;;4.22;1.00;;;29.50;57.60;;;;;;5098049;28;20016;-65
2022/05/21 11:09:10;;;;;;;2.47;0.82;;;28.70;58.50;;;;;;5116535;28;20059;-65
2022/05/21 11:12:01;;;;;;;2.97;0.90;;;27.40;61.00;;;;;;5116406;28;20112;-65
2022/05/21 11:14:47;;;;;;;3.10;0.90;;;26.60;62.30;;;;;;5115946;28;20095;-65
2022/05/21 11:17:31;;;;;;;2.70;0.95;;;25.90;63.00;;;;;;5098295;28;20362;-65
2022/05/21 11:20:11;;;;;;;2.78;0.82;;;25.50;64.10;;;;;;5098777;28;20088;-64
2022/05/21 11:22:59;;;;;;;2.22;0.82;;;24.80;65.00;;;;;;5116927;28;20016;-64
2022/05/21 11:25:36;;;;;;;5.78;1.02;;;24.60;65.80;;;;;;5116212;28;20020;-63
2022/05/21 11:28:29;;;;;;;1.35;0.90;;;24.10;66.60;;;;;;5116601;28;20031;-63
2022/05/21 11:31:12;;;;;;;1.70;0.90;;;23.90;67.60;;;;;;5116098;28;20020;-64
2022/05/21 11:39:15;;;;;;;5.00;1.05;;;23.70;67.90;;;;;;5115483;28;20046;-66
2022/05/21 11:41:53;;;;;;;2.90;1.13;;;23.80;67.90;;;;;;5097127;28;20028;-65
2022/05/21 11:47:07;;;;;;;2.67;1.13;;;23.70;68.60;;;;;;5115917;28;20034;-66
2022/05/21 11:49:34;;;;;;;3.63;1.10;;;23.60;68.70;;;;;;5096816;28;20028;-66
2022/05/21 11:52:26;;;;;;;2.45;1.13;;;23.50;69.20;;;;;;5115476;28;20020;-66
2022/05/21 11:54:55;;;;;;;3.35;0.93;;;23.60;68.60;;;;;;5115229;28;20485;-65
2022/05/21 11:57:37;;;;;;;2.40;0.85;;;23.70;68.70;;;;;;5115811;28;20055;-64
2022/05/21 12:00:05;;;;;;;1.52;0.80;;;23.60;68.80;;;;;;5115510;28;20500;-66
2022/05/21 12:02:39;;;;;;;2.40;1.20;;;23.50;69.00;;;;;;5115970;28;20023;-66
2022/05/21 12:05:11;;;;;;;2.00;0.85;;;23.50;68.90;;;;;;5115280;28;20015;-66
2022/05/21 12:07:48;;;;;;;4.10;1.42;;;23.50;68.70;;;;;;5115032;28;20028;-66
2022/05/21 12:10:27;;;;;;;6.68;1.08;;;23.70;68.60;;;;;;5137725;22;20102;-66
2022/05/21 12:13:02;;;;;;;2.38;0.90;;;23.70;69.50;;;;;;5115246;28;20500;-66
2022/05/21 12:15:38;;;;;;;1.55;0.70;;;23.80;68.10;;;;;;5115791;28;20095;-66
2022/05/21 12:18:06;;;;;;;2.80;1.08;;;23.60;67.80;;;;;;5116392;28;20030;-66
2022/05/21 12:20:47;;;;;;;3.03;1.73;;;23.50;68.10;;;;;;5076653;28;20111;-67
2022/05/21 12:23:35;;;;;;;4.93;1.35;;;23.60;68.50;;;;;;5076772;28;20072;-68
2022/05/21 12:26:13;;;;;;;5.18;1.10;;;23.60;69.00;;;;;;5094565;28;20023;-71
2022/05/21 12:28:56;;;;;;;3.22;1.17;;;23.70;68.80;;;;;;5076264;28;20063;-67
2022/05/21 12:31:38;;;;;;;1.67;0.63;;;23.80;67.90;;;;;;5094547;28;20089;-67
2022/05/21 12:34:22;;;;;;;2.83;0.80;;;23.80;67.90;;;;;;5094651;28;20024;-67
2022/05/21 12:36:50;;;;;;;1.90;0.82;;;23.80;68.30;;;;;;5094244;28;20561;-67
2022/05/21 12:39:41;;;;;;;2.58;0.98;;;23.90;68.70;;;;;;5076160;28;20031;-67
2022/05/21 12:42:23;;;;;;;1.58;0.63;;;24.00;67.90;;;;;;5094825;28;20112;-66
2022/05/21 12:44:49;;;;;;;3.63;0.80;;;24.30;67.10;;;;;;5094607;28;20023;-68
2022/05/21 12:47:32;;;;;;;2.72;0.80;;;24.00;65.90;;;;;;5094089;28;20028;-67
2022/05/21 12:49:59;;;;;;;4.20;0.93;;;23.90;67.20;;;;;;5075620;28;20081;-66
2022/05/21 12:52:49;;;;;;;3.70;1.02;;;23.80;67.80;;;;;;5094079;28;20028;-65
2022/05/21 12:55:25;;;;;;;4.28;0.85;;;24.00;67.90;;;;;;5094072;28;20490;-65
2022/05/21 12:57:56;;;;;;;2.85;1.10;;;23.90;67.20;;;;;;5093702;28;20048;-66
2022/05/21 13:00:24;;;;;;;3.03;0.90;;;24.00;68.30;;;;;;5093766;28;20020;-66
2022/05/21 13:02:54;;;;;;;3.38;1.27;;;23.90;68.00;;;;;;5076400;28;20100;-66
2022/05/21 13:05:26;;;;;;;2.25;1.00;;;23.90;68.10;;;;;;5094753;28;20024;-66
2022/05/21 13:07:56;;;;;;;1.52;0.90;;;24.00;67.60;;;;;;5094508;28;20506;-65
2022/05/21 13:10:26;;;;;;;1.88;0.80;;;24.00;66.10;;;;;;5095076;28;20024;-66
2022/05/21 13:13:23;;;;;;;1.58;0.80;;;24.00;66.60;;;;;;5076059;28;20094;-67
2022/05/21 13:15:59;;;;;;;4.07;1.50;;;24.00;66.90;;;;;;5092738;28;20032;-69
2022/05/21 13:18:57;;;;;;;1.95;1.08;;;24.00;67.50;;;;;;5075841;28;20034;-66
2022/05/21 13:21:50;;;;;;;3.40;1.00;;;24.00;67.20;;;;;;5093733;28;20016;-66
2022/05/21 13:24:57;;;;;;;2.30;0.82;;;24.10;66.70;;;;;;5075079;28;20025;-65
2022/05/21 13:27:23;;;;;;;1.85;0.95;;;23.80;67.40;;;;;;5074951;28;20066;-66
2022/05/21 13:29:50;;;;;;;3.35;0.73;;;23.70;67.80;;;;;;5093824;28;20040;-66
2022/05/21 13:32:26;;;;;;;2.85;0.80;;;23.80;68.30;;;;;;5075089;28;20028;-65
2022/05/21 13:34:56;;;;;;;2.90;0.75;;;23.90;68.10;;;;;;5093389;28;20053;-66
2022/05/21 13:37:39;;;;;;;2.60;1.50;;;23.90;67.80;;;;;;5092950;28;20490;-66
2022/05/21 13:40:17;;;;;;;4.22;2.20;;;24.00;67.70;;;;;;5093254;28;20028;-66
2022/05/21 13:42:45;;;;;;;1.52;0.95;;;24.10;66.30;;;;;;5092878;28;20051;-65
2022/05/21 13:45:28;;;;;;;2.80;0.70;;;24.00;65.40;;;;;;5092757;28;20020;-67
2022/05/21 13:48:07;;;;;;;2.92;0.70;;;24.00;66.20;;;;;;5093227;28;20020;-69